Time;durP1;ratioP1;P1;durP2;ratioP2;P2;SDS_P1;SDS_P2;PMS_P1;PMS_P2;Temp;Humidity;BMP_temperature;BMP_pressure;BME280_temperature;BME280_humidity;BME280_pressure;Samples;Min_cycle;Max_cycle;Signal;HPM_P1;HPM_P2
2021/01/21 00:02:17;;;;;;;2.45;2.35;;;;;;;5.23;91.70;97900.75;5062977;28;20083;-68
2021/01/21 00:04:42;;;;;;;0.40;0.40;;;;;;;5.21;91.75;97905.09;5063044;28;20031;-69
2021/01/21 00:07:07;;;;;;;0.52;0.52;;;;;;;5.17;91.93;97903.50;5063096;28;20081;-69
2021/01/21 00:09:33;;;;;;;0.50;0.50;;;;;;;5.12;91.83;97910.47;5078338;28;20017;-69
2021/01/21 00:11:58;;;;;;;0.30;0.30;;;;;;;5.11;91.64;97913.94;5065158;28;20382;-69
2021/01/21 00:14:24;;;;;;;0.55;0.55;;;;;;;5.07;91.56;97892.59;5066471;28;20025;-70
2021/01/21 00:16:49;;;;;;;0.30;0.30;;;;;;;5.09;91.50;97911.41;5066565;28;20086;-69
2021/01/21 00:19:15;;;;;;;0.40;0.40;;;;;;;5.07;91.40;97905.47;5066465;28;20055;-69
2021/01/21 00:21:40;;;;;;;0.60;0.60;;;;;;;4.98;91.59;97901.41;5066430;28;20020;-69
2021/01/21 00:24:06;;;;;;;0.40;0.40;;;;;;;4.95;91.66;97904.88;5066322;28;20040;-69
2021/01/21 00:26:31;;;;;;;0.52;0.52;;;;;;;4.92;91.39;97899.81;5066321;28;20017;-69
2021/01/21 00:28:57;;;;;;;0.40;0.40;;;;;;;4.85;91.45;97898.31;5081499;28;20025;-69
2021/01/21 00:31:22;;;;;;;0.57;0.57;;;;;;;4.95;91.39;97902.31;5066177;28;20017;-69
2021/01/21 00:33:47;;;;;;;0.40;0.40;;;;;;;4.84;91.49;97900.03;5066466;28;20025;-69
2021/01/21 00:36:13;;;;;;;0.30;0.30;;;;;;;4.78;91.53;97889.91;5065984;28;20051;-69
2021/01/21 00:38:39;;;;;;;4.00;3.60;;;;;;;4.84;91.49;97883.75;5066274;28;20036;-69
2021/01/21 00:41:05;;;;;;;0.40;0.40;;;;;;;4.81;91.62;97896.69;5066114;28;20028;-69
2021/01/21 00:43:30;;;;;;;0.40;0.40;;;;;;;4.73;91.78;97888.34;5065853;28;20124;-69
2021/01/21 00:45:56;;;;;;;0.40;0.40;;;;;;;4.75;91.55;97895.13;5065786;28;20021;-69
2021/01/21 00:48:22;;;;;;;1.20;1.20;;;;;;;4.71;91.57;97890.97;5066060;28;20028;-68
2021/01/21 00:50:48;;;;;;;0.30;0.30;;;;;;;4.62;91.71;97880.91;5065882;28;20029;-69
2021/01/21 00:53:15;;;;;;;21.67;3.33;;;;;;;4.68;91.57;97883.31;5065889;28;20055;-69
2021/01/21 00:55:40;;;;;;;0.35;0.35;;;;;;;4.63;91.42;97887.72;5065695;28;20029;-69
2021/01/21 00:58:05;;;;;;;0.30;0.30;;;;;;;4.69;91.37;97887.56;5065588;28;20041;-68
2021/01/21 01:00:31;;;;;;;0.40;0.40;;;;;;;4.61;91.64;97882.63;5064086;28;20049;-68
2021/01/21 01:02:56;;;;;;;0.40;0.40;;;;;;;4.64;91.18;97876.56;5065718;28;20142;-68
2021/01/21 01:05:21;;;;;;;0.30;0.30;;;;;;;4.56;91.51;97875.03;5065565;28;20017;-68
2021/01/21 01:07:47;;;;;;;0.38;0.38;;;;;;;4.51;91.70;97878.56;5065461;28;20076;-69
2021/01/21 01:10:13;;;;;;;0.40;0.40;;;;;;;4.56;91.61;97879.31;5065700;28;20060;-67
2021/01/21 01:12:39;;;;;;;0.40;0.40;;;;;;;4.54;91.52;97863.94;5065411;28;20070;-68
2021/01/21 01:15:07;;;;;;;0.40;0.40;;;;;;;4.55;91.64;97865.63;5063702;28;20066;-67
2021/01/21 01:17:33;;;;;;;0.45;0.45;;;;;;;4.62;91.15;97868.88;5065295;28;20025;-67
2021/01/21 01:19:58;;;;;;;0.40;0.40;;;;;;;4.50;91.43;97876.91;5065466;28;20377;-67
2021/01/21 01:22:24;;;;;;;0.40;0.40;;;;;;;4.46;91.63;97866.69;5064343;28;20473;-67
2021/01/21 01:24:49;;;;;;;0.30;0.30;;;;;;;4.55;91.36;97864.78;5065252;28;20020;-67
2021/01/21 01:27:14;;;;;;;0.40;0.40;;;;;;;4.49;91.44;97855.50;5065126;28;20044;-67
2021/01/21 01:29:40;;;;;;;0.30;0.30;;;;;;;4.49;91.21;97855.50;5065362;28;20029;-67
2021/01/21 01:32:05;;;;;;;0.30;0.30;;;;;;;4.42;91.24;97847.13;5064911;28;20029;-68
2021/01/21 01:34:30;;;;;;;0.40;0.40;;;;;;;4.42;91.37;97838.56;5065293;28;20024;-68
2021/01/21 01:36:56;;;;;;;0.32;0.32;;;;;;;4.42;91.38;97847.13;5065098;28;20047;-67
2021/01/21 01:39:21;;;;;;;0.30;0.30;;;;;;;4.38;91.50;97840.34;5063597;28;20017;-68
2021/01/21 01:41:47;;;;;;;0.55;0.55;;;;;;;4.45;91.33;97835.91;5065035;28;20626;-67
2021/01/21 01:44:13;;;;;;;0.35;0.35;;;;;;;4.39;91.46;97836.06;5064907;28;20044;-69
2021/01/21 01:46:38;;;;;;;0.32;0.32;;;;;;;4.42;91.25;97834.28;5064683;28;20029;-68
2021/01/21 01:49:04;;;;;;;0.30;0.30;;;;;;;4.38;91.24;97832.63;5064933;28;20021;-68
2021/01/21 01:51:29;;;;;;;0.40;0.40;;;;;;;4.34;91.49;97833.59;5064542;28;20088;-69
2021/01/21 01:53:56;;;;;;;0.30;0.30;;;;;;;4.37;91.42;97815.56;5063476;28;20089;-69
2021/01/21 01:56:21;;;;;;;0.30;0.30;;;;;;;4.36;91.32;97828.44;5063072;28;20040;-69
2021/01/21 01:58:51;;;;;;;1.55;1.52;;;;;;;4.36;91.30;97810.44;5064680;28;20065;-68
2021/01/21 02:01:18;;;;;;;1.60;1.58;;;;;;;4.34;90.87;97798.47;5064265;28;20035;-69
2021/01/21 02:03:43;;;;;;;0.40;0.40;;;;;;;4.31;90.79;97811.38;5064598;28;20021;-69
2021/01/21 02:06:09;;;;;;;0.50;0.50;;;;;;;4.21;91.23;97800.53;5079945;28;20024;-69
2021/01/21 02:08:34;;;;;;;1.05;1.05;;;;;;;4.37;90.37;97797.56;5064398;28;20389;-69
2021/01/21 02:11:07;;;;;;;0.40;0.40;;;;;;;4.38;90.46;97796.69;5079883;28;20017;-69
2021/01/21 02:13:36;;;;;;;0.30;0.30;;;;;;;4.41;89.86;97795.78;5079737;28;20020;-69
2021/01/21 02:16:11;;;;;;;0.30;0.30;;;;;;;4.34;90.22;97795.06;5063902;28;20020;-69
2021/01/21 02:18:41;;;;;;;0.40;0.40;;;;;;;4.24;90.46;97785.91;5064194;28;20077;-68
2021/01/21 02:21:13;;;;;;;0.30;0.30;;;;;;;4.28;89.95;97782.41;5064313;28;20366;-69
2021/01/21 02:23:44;;;;;;;0.43;0.43;;;;;;;4.26;90.04;97790.13;5064239;28;20029;-68
2021/01/21 02:26:11;;;;;;;0.82;0.82;;;;;;;4.19;90.44;97789.44;5064179;28;20070;-69
2021/01/21 02:29:01;;;;;;;0.50;0.50;;;;;;;4.21;90.31;97785.13;5064268;28;20017;-68
2021/01/21 02:31:56;;;;;;;3.42;3.22;;;;;;;4.25;90.26;97779.91;5063980;28;20043;-68
2021/01/21 02:34:49;;;;;;;0.35;0.35;;;;;;;4.15;90.59;97785.28;5063542;28;20031;-69
2021/01/21 02:37:25;;;;;;;0.40;0.40;;;;;;;4.21;90.24;97787.69;5064217;28;20021;-68
2021/01/21 02:39:53;;;;;;;0.35;0.35;;;;;;;4.18;90.41;97772.34;5064118;28;20082;-69
2021/01/21 02:42:18;;;;;;;0.40;0.40;;;;;;;4.27;89.64;97758.44;5063816;28;20031;-68
2021/01/21 02:44:44;;;;;;;0.30;0.30;;;;;;;4.21;89.91;97759.44;5064137;28;20049;-68
2021/01/21 02:47:11;;;;;;;0.38;0.38;;;;;;;4.15;90.24;97761.31;5062422;28;20020;-67
2021/01/21 02:49:37;;;;;;;3.03;1.75;;;;;;;4.53;88.10;97771.47;5079577;28;20021;-68
2021/01/21 02:52:18;;;;;;;1.15;0.77;;;;;;;4.32;88.96;97755.72;5064650;28;20024;-67
2021/01/21 02:54:49;;;;;;;0.40;0.40;;;;;;;4.18;89.56;97756.94;5064307;28;20056;-66
2021/01/21 02:57:36;;;;;;;0.40;0.40;;;;;;;4.18;89.93;97754.38;5063834;28;20049;-66
2021/01/21 03:00:06;;;;;;;0.30;0.30;;;;;;;4.18;89.88;97756.09;5063719;28;20119;-66
2021/01/21 03:02:36;;;;;;;0.40;0.40;;;;;;;4.24;88.98;97735.38;5063834;28;20028;-66
2021/01/21 03:05:02;;;;;;;0.40;0.40;;;;;;;4.17;89.32;97737.25;5063858;28;20021;-66
2021/01/21 03:07:27;;;;;;;0.35;0.35;;;;;;;4.18;89.67;97744.09;5063622;28;20032;-66
2021/01/21 03:09:53;;;;;;;0.40;0.40;;;;;;;4.22;89.85;97740.56;5062237;28;20024;-66
2021/01/21 03:12:21;;;;;;;0.40;0.40;;;;;;;4.28;89.41;97733.59;5063686;28;20113;-66
2021/01/21 03:14:49;;;;;;;0.40;0.40;;;;;;;4.23;88.92;97731.16;5063739;28;20021;-66
2021/01/21 03:17:14;;;;;;;0.30;0.30;;;;;;;4.49;87.58;97731.34;5063424;28;20025;-66
2021/01/21 03:19:39;;;;;;;0.30;0.30;;;;;;;4.27;88.61;97734.47;5063535;28;20053;-66
2021/01/21 03:22:05;;;;;;;0.35;0.35;;;;;;;4.16;89.16;97714.19;5063630;28;20048;-66
2021/01/21 03:24:30;;;;;;;0.30;0.30;;;;;;;4.11;89.61;97718.59;5079272;28;20021;-67
2021/01/21 03:26:56;;;;;;;0.40;0.40;;;;;;;4.15;89.94;97715.09;5063893;28;20014;-67
2021/01/21 03:29:21;;;;;;;0.40;0.40;;;;;;;4.08;90.03;97709.25;5063511;28;20265;-67
2021/01/21 03:31:46;;;;;;;0.40;0.40;;;;;;;4.11;90.28;97719.44;5063071;28;20024;-69
2021/01/21 03:34:12;;;;;;;0.40;0.40;;;;;;;4.06;90.39;97713.59;5063323;28;20021;-68
2021/01/21 03:36:37;;;;;;;0.40;0.40;;;;;;;4.13;90.51;97712.56;5063258;28;20468;-67
2021/01/21 03:39:03;;;;;;;0.30;0.30;;;;;;;4.13;90.36;97701.44;5063315;28;20028;-68
2021/01/21 03:41:28;;;;;;;0.40;0.40;;;;;;;4.07;90.42;97710.97;5061758;28;20025;-69
2021/01/21 03:43:54;;;;;;;0.30;0.30;;;;;;;4.05;90.54;97692.22;5078772;28;20036;-71
2021/01/21 03:46:19;;;;;;;0.40;0.40;;;;;;;4.12;90.75;97707.47;5079526;28;20229;-73
2021/01/21 03:48:44;;;;;;;0.40;0.40;;;;;;;4.12;90.53;97708.28;5067180;28;20037;-71
2021/01/21 03:51:10;;;;;;;0.32;0.32;;;;;;;4.18;90.73;97705.59;5067063;28;20020;-69
2021/01/21 03:53:35;;;;;;;0.40;0.40;;;;;;;4.17;90.71;97701.31;5082421;28;20066;-69
2021/01/21 03:56:00;;;;;;;0.30;0.30;;;;;;;4.21;90.72;97705.50;5066605;28;20029;-68
2021/01/21 03:58:26;;;;;;;0.30;0.30;;;;;;;4.24;90.90;97693.44;5067066;28;20021;-69
2021/01/21 04:00:51;;;;;;;0.30;0.30;;;;;;;4.26;90.85;97687.41;5065389;28;20039;-69
2021/01/21 04:03:16;;;;;;;0.50;0.50;;;;;;;4.28;91.16;97677.91;5066939;28;20024;-68
2021/01/21 04:05:42;;;;;;;0.40;0.40;;;;;;;4.34;90.96;97676.91;5065326;28;20021;-68
2021/01/21 04:08:07;;;;;;;0.30;0.30;;;;;;;4.35;91.02;97678.59;5066728;28;20029;-68
2021/01/21 04:10:32;;;;;;;0.40;0.40;;;;;;;4.38;91.07;97665.66;5066343;28;20035;-67
2021/01/21 04:12:58;;;;;;;0.30;0.30;;;;;;;4.35;91.01;97658.03;5066702;28;20044;-69
2021/01/21 04:15:23;;;;;;;0.35;0.35;;;;;;;4.47;91.10;97662.00;5066206;28;20028;-68
2021/01/21 04:17:48;;;;;;;0.60;0.60;;;;;;;4.49;91.23;97662.78;5066420;28;20040;-70
2021/01/21 04:20:14;;;;;;;0.40;0.40;;;;;;;4.43;91.20;97657.84;5066422;28;20046;-69
2021/01/21 04:22:39;;;;;;;0.30;0.30;;;;;;;4.52;91.04;97633.63;5066237;28;20029;-69
2021/01/21 04:25:05;;;;;;;0.30;0.30;;;;;;;4.63;91.35;97659.00;5081918;28;20086;-69
2021/01/21 04:27:31;;;;;;;0.35;0.35;;;;;;;4.69;91.39;97664.81;5065016;28;20024;-69
2021/01/21 04:29:56;;;;;;;0.30;0.30;;;;;;;4.74;91.27;97659.53;5081677;28;20426;-67
2021/01/21 04:32:21;;;;;;;0.32;0.32;;;;;;;4.75;91.35;97650.94;5064906;28;20028;-70
2021/01/21 04:34:47;;;;;;;0.40;0.40;;;;;;;4.74;91.23;97654.41;5066138;28;20108;-70
2021/01/21 04:37:12;;;;;;;0.73;0.73;;;;;;;4.77;90.68;97638.88;5066165;28;20041;-70
2021/01/21 04:39:37;;;;;;;0.30;0.30;;;;;;;4.95;88.71;97634.09;5064843;28;20025;-70
2021/01/21 04:42:03;;;;;;;0.30;0.30;;;;;;;4.95;87.91;97626.38;5065859;28;20039;-70
2021/01/21 04:44:29;;;;;;;0.40;0.40;;;;;;;4.86;88.45;97612.06;5065924;28;20028;-70
2021/01/21 04:46:55;;;;;;;0.32;0.32;;;;;;;4.80;88.59;97627.66;5065921;28;20021;-69
2021/01/21 04:49:21;;;;;;;0.40;0.40;;;;;;;4.78;88.23;97619.16;5064741;28;20091;-69
2021/01/21 04:51:49;;;;;;;0.30;0.30;;;;;;;4.84;88.22;97619.81;5066032;28;20028;-69
2021/01/21 04:54:26;;;;;;;0.40;0.40;;;;;;;4.80;87.62;97589.97;5065718;28;20049;-69
2021/01/21 04:56:54;;;;;;;0.40;0.40;;;;;;;4.81;88.10;97595.91;5065526;28;20041;-68
2021/01/21 04:59:19;;;;;;;0.63;0.63;;;;;;;4.78;88.26;97598.59;5065724;28;20017;-68
2021/01/21 05:01:45;;;;;;;0.40;0.40;;;;;;;4.91;87.11;97589.63;5080954;28;20097;-68
2021/01/21 05:04:12;;;;;;;0.30;0.30;;;;;;;4.88;87.05;97583.72;5065561;28;20531;-68
2021/01/21 05:06:38;;;;;;;0.30;0.30;;;;;;;4.71;87.78;97573.06;5065699;28;20028;-68
2021/01/21 05:09:04;;;;;;;0.52;0.52;;;;;;;4.78;88.42;97585.72;5065694;28;20084;-68
2021/01/21 05:11:29;;;;;;;0.40;0.40;;;;;;;4.87;87.75;97580.34;5065536;28;20050;-69
2021/01/21 05:13:55;;;;;;;0.30;0.30;;;;;;;4.85;87.81;97579.53;5065478;28;20025;-70
2021/01/21 05:16:20;;;;;;;0.40;0.40;;;;;;;4.96;87.99;97577.47;5065218;28;20115;-68
2021/01/21 05:18:46;;;;;;;0.40;0.40;;;;;;;4.91;87.51;97558.78;5065546;28;20032;-68
2021/01/21 05:21:11;;;;;;;0.32;0.32;;;;;;;4.98;87.16;97569.72;5065456;28;20032;-69
2021/01/21 05:23:38;;;;;;;4.57;2.88;;;;;;;5.04;86.91;97563.53;5065147;28;20398;-68
2021/01/21 05:26:04;;;;;;;18.58;6.07;;;;;;;5.00;86.98;97561.94;5065234;28;20045;-69
2021/01/21 05:28:29;;;;;;;13.55;6.30;;;;;;;4.94;87.31;97553.53;5065003;28;20021;-68
2021/01/21 05:30:59;;;;;;;12.45;5.53;;;;;;;5.09;86.04;97559.09;5064777;28;20032;-69
2021/01/21 05:33:24;;;;;;;18.38;6.72;;;;;;;4.98;86.93;97536.28;5065151;28;20021;-67
2021/01/21 05:35:53;;;;;;;15.05;5.10;;;;;;;5.00;86.15;97529.34;5065259;28;20059;-67
2021/01/21 05:38:21;;;;;;;14.20;5.05;;;;;;;5.08;85.85;97534.25;5064919;28;20029;-69
2021/01/21 05:40:46;;;;;;;14.75;6.05;;;;;;;4.96;86.06;97518.34;5064971;28;20028;-68
2021/01/21 05:43:17;;;;;;;10.98;5.60;;;;;;;4.93;86.51;97535.59;5065064;28;20039;-67
2021/01/21 05:45:45;;;;;;;6.00;3.92;;;;;;;4.94;86.97;97530.41;5064778;28;20017;-66
2021/01/21 05:48:12;;;;;;;12.57;5.03;;;;;;;4.92;86.20;97518.50;5064924;28;20027;-72
2021/01/21 05:50:38;;;;;;;16.42;5.22;;;;;;;5.12;84.71;97522.97;5065006;28;20053;-67
2021/01/21 05:53:12;;;;;;;11.35;3.70;;;;;;;4.99;85.81;97519.97;5064628;28;20017;-67
2021/01/21 05:55:38;;;;;;;6.10;3.97;;;;;;;5.01;85.46;97520.75;5064909;28;20028;-67
2021/01/21 05:58:09;;;;;;;9.43;4.93;;;;;;;4.87;86.24;97521.22;5064535;28;20124;-68
2021/01/21 06:00:39;;;;;;;14.75;4.97;;;;;;;4.83;86.54;97504.19;5064716;28;20032;-67
2021/01/21 06:03:04;;;;;;;6.78;2.78;;;;;;;4.79;87.03;97505.19;5064446;28;20060;-66
2021/01/21 06:05:31;;;;;;;9.25;5.38;;;;;;;4.84;86.39;97495.56;5064783;28;20009;-68
2021/01/21 06:07:57;;;;;;;10.80;4.07;;;;;;;5.00;85.78;97489.97;5064723;28;20025;-67
2021/01/21 06:10:22;;;;;;;11.35;4.80;;;;;;;4.96;86.48;97484.91;5063783;28;20040;-66
2021/01/21 06:12:50;;;;;;;5.10;2.42;;;;;;;5.25;84.78;97473.69;5064319;28;20108;-67
2021/01/21 06:15:17;;;;;;;8.80;3.00;;;;;;;5.10;85.39;97475.88;5062524;28;20024;-67
2021/01/21 06:17:46;;;;;;;9.60;4.72;;;;;;;5.12;85.44;97486.13;5062904;28;20499;-68
2021/01/21 06:20:13;;;;;;;8.40;4.10;;;;;;;4.98;86.20;97476.31;5064464;28;20036;-67
2021/01/21 06:22:41;;;;;;;8.23;4.82;;;;;;;5.14;86.02;97486.91;5063859;28;20085;-68
2021/01/21 06:25:11;;;;;;;11.35;4.60;;;;;;;5.28;84.68;97478.72;5064071;28;20025;-66
2021/01/21 06:27:38;;;;;;;14.38;4.28;;;;;;;5.27;84.78;97482.22;5064035;28;20040;-65
2021/01/21 06:30:04;;;;;;;6.15;2.92;;;;;;;5.16;84.83;97480.81;5064129;28;20024;-66
2021/01/21 06:32:34;;;;;;;12.30;4.88;;;;;;;5.33;83.86;97487.16;5063598;28;20048;-67
2021/01/21 06:35:05;;;;;;;8.82;3.40;;;;;;;5.29;84.19;97490.69;5064078;28;20028;-65
2021/01/21 06:37:37;;;;;;;14.80;4.78;;;;;;;5.15;84.92;97488.59;5064171;28;20025;-65
2021/01/21 06:40:08;;;;;;;10.63;4.10;;;;;;;5.36;83.79;97476.75;5079337;28;20088;-65
2021/01/21 06:42:54;;;;;;;12.80;4.30;;;;;;;5.17;84.67;97472.25;5063994;28;20017;-66
2021/01/21 06:45:19;;;;;;;4.57;2.40;;;;;;;5.20;84.24;97450.72;5063728;28;20041;-66
2021/01/21 06:47:45;;;;;;;8.40;4.07;;;;;;;5.25;83.80;97476.28;5064026;28;20519;-63
2021/01/21 06:50:12;;;;;;;6.03;2.83;;;;;;;5.28;83.53;97473.59;5063634;28;20048;-65
2021/01/21 06:52:38;;;;;;;13.07;4.00;;;;;;;5.38;82.38;97456.97;5063490;28;20075;-65
2021/01/21 06:55:08;;;;;;;16.00;3.83;;;;;;;5.21;83.23;97460.94;5063717;28;20080;-67
2021/01/21 06:57:33;;;;;;;9.27;3.83;;;;;;;5.14;84.04;97456.91;5063398;28;20151;-65
2021/01/21 06:59:59;;;;;;;12.88;3.35;;;;;;;5.24;83.69;97461.75;5063718;28;20025;-64
2021/01/21 07:02:43;;;;;;;7.38;3.40;;;;;;;5.25;83.20;97455.69;5063389;28;20520;-66
2021/01/21 07:05:16;;;;;;;10.88;3.15;;;;;;;5.26;83.19;97449.63;5063737;28;20025;-65
2021/01/21 07:07:53;;;;;;;8.75;4.50;;;;;;;5.04;84.27;97445.25;5063841;28;20055;-65
2021/01/21 07:10:41;;;;;;;9.20;3.53;;;;;;;5.19;84.23;97439.56;5063587;28;20113;-65
2021/01/21 07:13:09;;;;;;;4.70;2.65;;;;;;;5.37;83.08;97390.94;5063731;28;20017;-65
2021/01/21 07:15:43;;;;;;;8.90;3.42;;;;;;;5.51;81.63;97429.03;5063237;28;20021;-64
2021/01/21 07:18:35;;;;;;;5.15;2.42;;;;;;;5.53;81.40;97411.81;5063745;28;20037;-61
2021/01/21 07:21:02;;;;;;;7.25;3.40;;;;;;;5.51;80.75;97392.19;5059516;28;20110;-63
2021/01/21 07:23:57;;;;;;;7.43;3.10;;;;;;;5.34;81.54;97403.91;5067748;28;20040;-64
2021/01/21 07:26:35;;;;;;;5.93;2.80;;;;;;;5.17;82.10;97405.38;5063759;28;20029;-63
2021/01/21 07:29:14;;;;;;;7.88;4.97;;;;;;;5.13;82.55;97401.22;5067596;28;20127;-64
2021/01/21 07:32:04;;;;;;;8.23;2.72;;;;;;;5.18;82.04;97395.91;5066112;28;20021;-65
2021/01/21 07:34:35;;;;;;;9.63;4.82;;;;;;;5.16;81.99;97390.81;5067512;28;20017;-64
2021/01/21 07:37:06;;;;;;;6.30;3.40;;;;;;;5.26;82.10;97369.91;5067384;28;20423;-65
2021/01/21 07:40:03;;;;;;;4.57;2.30;;;;;;;5.00;83.04;97366.53;5067633;28;20021;-65
2021/01/21 07:42:32;;;;;;;5.53;2.28;;;;;;;4.87;83.77;97377.25;5053732;28;20058;-68
2021/01/21 07:45:00;;;;;;;9.60;5.60;;;;;;;4.76;84.30;97405.03;5067350;28;20055;-68
2021/01/21 07:47:34;;;;;;;14.95;5.65;;;;;;;4.63;85.17;97384.91;5067280;28;20025;-68
2021/01/21 07:50:39;;;;;;;5.18;2.72;;;;;;;4.89;84.68;97380.59;5067186;28;20024;-69
2021/01/21 07:53:06;;;;;;;14.70;5.20;;;;;;;4.90;83.84;97377.16;5067240;28;20421;-72
2021/01/21 07:55:36;;;;;;;17.65;5.88;;;;;;;4.69;85.10;97382.13;5067363;28;20021;-71
2021/01/21 07:58:21;;;;;;;13.32;4.93;;;;;;;4.62;86.12;97400.38;5065694;28;20108;-70
2021/01/21 08:00:56;;;;;;;5.88;2.88;;;;;;;4.83;85.22;97361.09;5066877;28;20017;-71
2021/01/21 08:03:41;;;;;;;9.65;4.70;;;;;;;4.92;84.88;97344.50;5066871;28;20059;-69
2021/01/21 08:06:11;;;;;;;5.47;2.90;;;;;;;5.27;83.31;97363.88;5066840;28;20051;-70
2021/01/21 08:08:37;;;;;;;5.18;2.85;;;;;;;5.19;83.32;97341.00;5066565;28;20052;-73
2021/01/21 08:11:05;;;;;;;10.10;3.63;;;;;;;5.07;84.11;97322.56;5066720;28;20033;-75
2021/01/21 08:13:31;;;;;;;11.05;4.03;;;;;;;5.07;84.05;97329.41;5065833;28;20028;-75
2021/01/21 08:15:57;;;;;;;6.65;3.13;;;;;;;5.40;82.90;97339.38;5065068;28;20021;-75
2021/01/21 08:18:23;;;;;;;4.50;3.13;;;;;;;5.27;83.38;97333.03;5082056;28;20025;-73
2021/01/21 08:20:49;;;;;;;5.18;2.80;;;;;;;5.45;82.63;97332.34;5066965;28;20021;-76
2021/01/21 08:23:15;;;;;;;9.18;2.75;;;;;;;5.48;82.53;97310.78;5081699;28;20028;-75
2021/01/21 08:25:45;;;;;;;8.35;3.63;;;;;;;5.43;82.55;97313.53;5066580;28;20055;-75
2021/01/21 08:28:15;;;;;;;3.25;2.03;;;;;;;5.65;81.63;97297.28;5066689;28;20029;-76
2021/01/21 08:30:41;;;;;;;4.18;1.80;;;;;;;5.59;81.64;97289.81;5081408;28;20017;-74
2021/01/21 08:33:26;;;;;;;11.93;3.08;;;;;;;5.51;82.35;97300.38;5065916;28;20027;-72
2021/01/21 08:35:54;;;;;;;6.95;2.72;;;;;;;5.65;80.92;97284.44;5081487;28;20032;-74
2021/01/21 08:38:40;;;;;;;4.03;2.58;;;;;;;5.79;80.69;97280.47;5081414;28;20563;-72
2021/01/21 08:41:07;;;;;;;2.88;1.63;;;;;;;6.14;78.71;97278.25;5064731;28;20028;-71
2021/01/21 08:43:38;;;;;;;3.03;2.53;;;;;;;5.68;80.37;97271.44;5066221;28;20029;-72
2021/01/21 08:46:21;;;;;;;7.70;3.63;;;;;;;5.98;79.37;97282.28;5066217;28;20020;-70
2021/01/21 08:48:48;;;;;;;9.40;2.45;;;;;;;6.02;78.94;97276.13;5082040;28;20032;-70
2021/01/21 08:51:28;;;;;;;5.05;2.40;;;;;;;5.81;80.18;97222.84;5066065;28;20021;-70
2021/01/21 08:54:18;;;;;;;7.25;2.50;;;;;;;5.88;79.37;97274.13;5064755;28;20031;-69
2021/01/21 08:57:03;;;;;;;3.25;1.55;;;;;;;5.81;80.28;97253.75;5060192;28;20061;-67
2021/01/21 08:59:29;;;;;;;8.38;3.20;;;;;;;5.87;79.86;97244.09;5081129;28;20040;-67
2021/01/21 09:01:56;;;;;;;10.75;2.33;;;;;;;6.15;78.32;97225.81;5065684;28;20092;-66
2021/01/21 09:04:28;;;;;;;7.18;2.53;;;;;;;6.15;78.04;97238.69;5065852;28;20025;-67
2021/01/21 09:06:55;;;;;;;6.53;2.90;;;;;;;5.98;78.72;97243.66;5065600;28;20071;-68
2021/01/21 09:09:34;;;;;;;4.20;2.60;;;;;;;5.90;79.38;97197.63;5065884;28;20496;-68
2021/01/21 09:12:23;;;;;;;5.97;2.35;;;;;;;6.27;76.79;97218.47;5064438;28;20031;-71
2021/01/21 09:15:09;;;;;;;2.90;1.90;;;;;;;6.23;77.36;97224.69;5065888;28;20028;-68
2021/01/21 09:17:37;;;;;;;10.85;2.78;;;;;;;6.12;77.49;97197.63;5080844;28;20033;-68
2021/01/21 09:20:21;;;;;;;6.07;2.22;;;;;;;6.02;77.96;97222.06;5065672;28;20082;-68
2021/01/21 09:22:49;;;;;;;3.72;1.67;;;;;;;6.11;77.83;97183.06;5080646;28;20025;-69
2021/01/21 09:25:21;;;;;;;4.70;2.05;;;;;;;6.35;76.07;97189.81;5065629;28;20024;-67
2021/01/21 09:27:55;;;;;;;4.53;2.20;;;;;;;6.25;77.01;97192.78;5065292;28;20025;-66
2021/01/21 09:30:21;;;;;;;4.63;1.83;;;;;;;6.39;75.88;97194.75;5065094;28;20024;-67
2021/01/21 09:32:47;;;;;;;5.25;2.17;;;;;;;6.27;76.60;97190.13;5064903;28;20045;-66
2021/01/21 09:35:15;;;;;;;5.95;2.15;;;;;;;6.52;74.91;97202.81;5065036;28;20028;-66
2021/01/21 09:37:55;;;;;;;7.78;2.83;;;;;;;6.44;75.33;97177.38;5064862;28;20063;-66
2021/01/21 09:40:23;;;;;;;4.78;1.55;;;;;;;6.60;75.06;97191.34;5065121;28;20549;-65
2021/01/21 09:42:49;;;;;;;5.78;2.50;;;;;;;6.42;76.19;97220.41;5065294;28;20085;-66
2021/01/21 09:45:16;;;;;;;2.80;1.52;;;;;;;6.45;75.59;97186.75;5064326;28;20025;-66
2021/01/21 09:47:41;;;;;;;5.85;1.90;;;;;;;6.52;75.45;97209.69;5080143;28;20127;-66
2021/01/21 09:50:08;;;;;;;5.88;2.10;;;;;;;6.34;77.12;97199.28;5065115;28;20085;-65
2021/01/21 09:52:34;;;;;;;4.15;2.47;;;;;;;6.25;77.08;97194.50;5064718;28;20074;-67
2021/01/21 09:55:00;;;;;;;4.28;2.67;;;;;;;6.16;77.75;97188.88;5064635;28;20021;-67
2021/01/21 09:57:27;;;;;;;9.80;2.50;;;;;;;5.81;79.01;97175.69;5064446;28;20120;-71
2021/01/21 09:59:52;;;;;;;4.05;1.67;;;;;;;5.88;79.39;97192.56;5064624;28;20051;-71
2021/01/21 10:02:18;;;;;;;9.00;3.42;;;;;;;5.60;80.04;97206.56;5064402;28;20024;-73
2021/01/21 10:04:44;;;;;;;3.63;2.20;;;;;;;5.38;80.92;97160.25;5064749;28;20028;-69
2021/01/21 10:07:10;;;;;;;2.83;1.45;;;;;;;5.55;80.66;97190.44;5064574;28;20159;-75
2021/01/21 10:09:36;;;;;;;11.30;3.33;;;;;;;5.29;81.59;97176.88;5064747;28;20408;-72
2021/01/21 10:12:02;;;;;;;3.55;1.77;;;;;;;5.24;81.99;97176.22;5064622;28;20059;-72
2021/01/21 10:14:28;;;;;;;7.80;2.65;;;;;;;5.14;82.49;97204.88;5064541;28;20128;-70
2021/01/21 10:16:54;;;;;;;6.70;2.63;;;;;;;5.17;82.76;97171.34;5064327;28;20446;-69
2021/01/21 10:19:20;;;;;;;0.30;0.30;;;;;;;4.95;83.49;97209.88;5064405;28;20054;-66
2021/01/21 10:21:45;;;;;;;0.30;0.30;;;;;;;4.84;84.31;97151.13;5063600;28;20029;-68
2021/01/21 10:24:11;;;;;;;0.30;0.30;;;;;;;4.85;84.66;97160.53;5064407;28;20043;-69
2021/01/21 10:26:37;;;;;;;1.02;1.02;;;;;;;4.89;84.72;97159.50;5063889;28;20052;-69
2021/01/21 10:29:02;;;;;;;0.30;0.30;;;;;;;4.93;85.42;97144.81;5064337;28;20029;-68
2021/01/21 10:31:28;;;;;;;0.30;0.30;;;;;;;5.16;84.09;97167.06;5063921;28;20024;-68
2021/01/21 10:33:53;;;;;;;0.30;0.30;;;;;;;4.93;85.34;97144.81;5064260;28;20187;-68
2021/01/21 10:36:19;;;;;;;0.88;0.88;;;;;;;4.87;85.35;97148.47;5064375;28;20059;-69
2021/01/21 10:38:44;;;;;;;3.22;3.13;;;;;;;4.99;85.44;97160.00;5064643;28;20031;-69
2021/01/21 10:41:10;;;;;;;9.63;3.42;;;;;;;5.01;85.23;97149.66;5076751;28;20045;-69
2021/01/21 10:43:36;;;;;;;9.57;2.50;;;;;;;4.80;86.20;97165.00;5076891;28;20021;-68
2021/01/21 10:46:01;;;;;;;9.88;3.47;;;;;;;4.62;86.99;97144.22;5076289;28;20025;-69
2021/01/21 10:48:27;;;;;;;0.20;0.20;;;;;;;4.77;86.42;97145.41;5067134;28;20074;-69
2021/01/21 10:50:52;;;;;;;0.20;0.20;;;;;;;4.58;87.40;97153.78;5063657;28;20052;-72
2021/01/21 10:53:18;;;;;;;0.30;0.30;;;;;;;4.74;87.07;97154.94;5061945;28;20021;-71
2021/01/21 10:55:43;;;;;;;0.30;0.30;;;;;;;4.69;87.29;97150.84;5060922;28;20027;-69
2021/01/21 10:58:09;;;;;;;0.30;0.30;;;;;;;4.71;87.63;97143.06;5060814;28;20127;-68
2021/01/21 11:00:34;;;;;;;0.30;0.30;;;;;;;4.69;87.69;97140.56;5060663;28;20025;-69
2021/01/21 11:03:02;;;;;;;0.30;0.30;;;;;;;4.75;87.44;97144.63;5060996;28;20029;-68
2021/01/21 11:05:27;;;;;;;0.52;0.40;;;;;;;4.81;87.42;97140.97;5060718;28;20036;-68
2021/01/21 11:07:52;;;;;;;11.57;4.00;;;;;;;4.85;86.74;97121.97;5060997;28;20028;-69
2021/01/21 11:10:18;;;;;;;5.30;2.45;;;;;;;4.91;86.46;97115.75;5063704;28;20021;-69
2021/01/21 11:12:45;;;;;;;0.73;0.73;;;;;;;4.87;86.83;97127.91;5063411;28;20032;-68
2021/01/21 11:15:11;;;;;;;0.30;0.30;;;;;;;4.86;86.83;97127.97;5078686;28;20115;-69
2021/01/21 11:17:37;;;;;;;0.30;0.30;;;;;;;4.77;87.21;97129.13;5063235;28;20021;-69
2021/01/21 11:20:04;;;;;;;0.30;0.30;;;;;;;4.80;87.17;97118.75;5063559;28;20056;-69
2021/01/21 11:22:30;;;;;;;0.30;0.30;;;;;;;4.77;87.26;97108.56;5063420;28;20066;-70
2021/01/21 11:24:55;;;;;;;0.30;0.30;;;;;;;4.75;87.06;97118.06;5063469;28;20033;-71
2021/01/21 11:27:24;;;;;;;0.30;0.30;;;;;;;4.83;87.03;97136.63;5063144;28;20021;-72
2021/01/21 11:29:49;;;;;;;0.30;0.30;;;;;;;4.66;87.62;97138.09;5063436;28;20033;-70
2021/01/21 11:32:14;;;;;;;0.30;0.30;;;;;;;4.63;87.89;97135.66;5062905;28;20028;-70
2021/01/21 11:34:40;;;;;;;12.60;3.70;;;;;;;4.62;88.02;97149.38;5062433;28;20021;-70
2021/01/21 11:37:05;;;;;;;6.55;4.00;;;;;;;4.64;88.29;97164.72;5063626;28;20057;-71
2021/01/21 11:39:30;;;;;;;21.10;4.53;;;;;;;4.68;88.29;97177.41;5063567;28;20517;-71
2021/01/21 11:41:56;;;;;;;9.20;2.92;;;;;;;4.84;87.74;97158.84;5063623;28;20056;-72
2021/01/21 11:44:21;;;;;;;11.35;2.70;;;;;;;4.81;87.56;97166.66;5063441;28;20033;-72
2021/01/21 11:46:47;;;;;;;14.90;3.78;;;;;;;4.73;87.69;97172.09;5078682;28;20027;-70
2021/01/21 11:49:17;;;;;;;9.02;2.72;;;;;;;4.84;87.14;97197.41;5063291;28;20457;-70